createdAt,value
2023-09-14T00:02:14.638Z,10.77
2023-09-14T00:04:41.249Z,12.50
2023-09-14T00:07:07.875Z,10.25
2023-09-14T00:09:34.493Z,10.88
2023-09-14T00:12:01.368Z,10.20
2023-09-14T00:14:29.136Z,11.82
2023-09-14T00:16:56.916Z,11.15
2023-09-14T00:19:28.427Z,13.63
2023-09-14T00:21:55.100Z,11.55
2023-09-14T00:24:22.043Z,11.63
2023-09-14T00:26:50.517Z,10.82
2023-09-14T00:29:17.071Z,12.15
2023-09-14T00:31:43.984Z,12.30
2023-09-14T00:34:16.189Z,12.93
2023-09-14T00:36:42.802Z,10.98
2023-09-14T00:39:12.187Z,11.70
2023-09-14T00:41:38.836Z,10.73
2023-09-14T00:44:08.993Z,12.68
2023-09-14T00:46:35.897Z,11.02
2023-09-14T00:49:02.951Z,10.45
2023-09-14T00:51:30.737Z,12.85
2023-09-14T00:53:58.643Z,10.43
2023-09-14T00:56:27.389Z,11.02
2023-09-14T00:58:56.561Z,11.30
2023-09-14T01:01:27.133Z,10.70
2023-09-14T01:03:54.045Z,14.02
2023-09-14T01:06:21.084Z,11.00
2023-09-14T01:08:49.172Z,11.55
2023-09-14T01:11:15.841Z,10.55
2023-09-14T01:14:26.815Z,11.75
2023-09-14T01:17:06.425Z,10.88
2023-09-14T01:19:44.749Z,11.32
2023-09-14T01:22:44.611Z,9.57
2023-09-14T01:25:44.391Z,10.07
2023-09-14T01:28:12.752Z,11.75
2023-09-14T01:30:39.835Z,13.10
2023-09-14T01:33:16.022Z,10.45
2023-09-14T01:35:51.010Z,14.00
2023-09-14T01:38:18.528Z,13.15
2023-09-14T01:40:46.595Z,11.75
2023-09-14T01:43:15.232Z,13.48
2023-09-14T01:45:42.904Z,13.18
2023-09-14T01:48:15.784Z,13.35
2023-09-14T01:50:43.064Z,13.45
2023-09-14T01:53:09.732Z,12.15
2023-09-14T01:55:36.305Z,12.43
2023-09-14T01:58:03.102Z,10.48
2023-09-14T02:00:29.727Z,10.88
2023-09-14T02:02:56.450Z,12.50
2023-09-14T02:05:27.922Z,16.30
2023-09-14T02:07:56.497Z,13.70
2023-09-14T02:10:26.468Z,13.65
2023-09-14T02:12:53.431Z,13.50
2023-09-14T02:15:20.113Z,13.95
2023-09-14T02:17:49.672Z,12.90
2023-09-14T02:20:16.362Z,14.38
2023-09-14T02:22:42.955Z,12.13
2023-09-14T02:25:11.121Z,13.88
2023-09-14T02:27:40.003Z,14.60
2023-09-14T02:30:07.918Z,13.95
2023-09-14T02:32:39.387Z,13.50
2023-09-14T02:35:06.497Z,14.75
2023-09-14T02:37:40.786Z,14.50
2023-09-14T02:40:07.948Z,15.60
2023-09-14T02:42:39.109Z,14.18
2023-09-14T02:45:09.239Z,13.52
2023-09-14T02:47:38.810Z,19.73
2023-09-14T02:50:09.727Z,16.70
2023-09-14T02:52:36.370Z,16.05
2023-09-14T02:55:04.171Z,13.32
2023-09-14T02:57:30.911Z,13.93
2023-09-14T02:59:59.314Z,16.27
2023-09-14T03:02:26.494Z,14.20
2023-09-14T03:04:56.166Z,14.80
2023-09-14T03:07:25.072Z,14.80
2023-09-14T03:09:51.799Z,16.20
2023-09-14T03:12:18.423Z,15.55
2023-09-14T03:14:45.007Z,14.82
2023-09-14T03:17:12.998Z,15.05
2023-09-14T03:19:43.259Z,16.17
2023-09-14T03:22:09.811Z,17.38
2023-09-14T03:24:38.460Z,16.15
2023-09-14T03:27:05.357Z,15.20
2023-09-14T03:29:35.134Z,16.98
2023-09-14T03:32:02.218Z,14.73
2023-09-14T03:34:28.917Z,16.17
2023-09-14T03:36:55.753Z,14.50
2023-09-14T03:39:22.298Z,16.10
2023-09-14T03:41:50.277Z,14.75
2023-09-14T03:44:20.212Z,17.13
2023-09-14T03:46:46.927Z,13.73
2023-09-14T03:49:13.644Z,15.80
2023-09-14T03:51:41.891Z,15.35
2023-09-14T03:54:10.118Z,16.95
2023-09-14T03:56:37.797Z,15.10
2023-09-14T03:59:04.852Z,16.75
2023-09-14T04:01:31.638Z,16.17
2023-09-14T04:03:58.670Z,19.88
2023-09-14T04:06:25.289Z,16.40
2023-09-14T04:09:07.788Z,14.80
2023-09-14T04:11:35.608Z,16.20
2023-09-14T04:14:03.943Z,16.60
2023-09-14T04:16:32.212Z,16.05
2023-09-14T04:19:03.390Z,19.92
2023-09-14T04:21:30.206Z,19.08
2023-09-14T04:23:57.144Z,18.05
2023-09-14T04:26:23.780Z,18.45
2023-09-14T04:28:50.351Z,17.27
2023-09-14T04:31:17.000Z,17.30
2023-09-14T04:33:44.342Z,15.20
2023-09-14T04:36:16.378Z,19.50
2023-09-14T04:38:46.625Z,13.57
2023-09-14T04:41:13.742Z,17.20
2023-09-14T04:43:40.290Z,17.90
2023-09-14T04:46:07.084Z,19.60
2023-09-14T04:48:34.056Z,15.27
2023-09-14T04:51:01.597Z,15.57
2023-09-14T04:53:28.349Z,14.15
2023-09-14T04:55:54.934Z,15.73
2023-09-14T04:58:26.653Z,17.85
2023-09-14T05:00:57.140Z,20.55
2023-09-14T05:03:25.841Z,15.90
2023-09-14T05:05:54.366Z,20.05
2023-09-14T05:08:24.130Z,15.70
2023-09-14T05:10:51.365Z,17.52
2023-09-14T05:13:38.414Z,16.50
2023-09-14T05:16:05.386Z,15.95
2023-09-14T05:18:38.206Z,18.50
2023-09-14T05:21:32.884Z,15.63
2023-09-14T05:23:59.525Z,15.10
2023-09-14T05:26:28.217Z,18.15
2023-09-14T05:29:00.381Z,17.60
2023-09-14T05:31:27.178Z,17.20
2023-09-14T05:33:59.568Z,17.73
2023-09-14T05:36:30.391Z,18.27
2023-09-14T05:39:02.105Z,20.35
2023-09-14T05:41:30.764Z,20.63
2023-09-14T05:44:08.968Z,18.98
2023-09-14T05:46:39.594Z,19.45
2023-09-14T05:49:07.260Z,18.70
2023-09-14T05:51:56.444Z,17.25
2023-09-14T05:57:25.696Z,18.10
2023-09-14T06:00:21.470Z,18.17
2023-09-14T06:02:59.717Z,17.05
2023-09-14T06:05:39.409Z,18.45
2023-09-14T06:08:13.669Z,21.42
2023-09-14T06:10:43.230Z,19.25
2023-09-14T06:13:26.472Z,20.10
2023-09-14T06:15:58.015Z,22.40
2023-09-14T06:18:27.529Z,19.98
2023-09-14T06:21:23.121Z,21.20
2023-09-14T06:23:57.464Z,19.02
2023-09-14T06:27:02.672Z,21.25
2023-09-14T06:33:06.890Z,24.15
2023-09-14T06:36:51.518Z,21.05
2023-09-14T06:42:24.698Z,21.98
2023-09-14T06:45:03.813Z,23.13
2023-09-14T06:51:45.584Z,21.05
2023-09-14T06:54:41.174Z,20.83
2023-09-14T06:58:56.958Z,24.60
2023-09-14T07:01:39.439Z,22.52
2023-09-14T07:07:29.037Z,24.83
2023-09-14T07:20:22.863Z,23.35
2023-09-14T07:23:30.416Z,24.63
2023-09-14T07:26:09.600Z,22.73
2023-09-14T07:32:49.306Z,22.00
2023-09-14T07:42:41.023Z,24.92
2023-09-14T07:45:55.267Z,19.95
2023-09-14T07:48:43.513Z,21.27
2023-09-14T07:51:45.764Z,21.95
2023-09-14T07:54:23.454Z,19.77
2023-09-14T08:00:55.650Z,21.42
2023-09-14T08:10:33.264Z,20.45
2023-09-14T08:40:36.129Z,22.05
2023-09-14T09:00:52.032Z,20.90
2023-09-14T09:07:23.222Z,20.58
2023-09-14T09:10:08.940Z,18.48
2023-09-14T09:13:16.544Z,19.98
2023-09-14T09:19:12.150Z,17.42
2023-09-14T09:26:09.841Z,23.13
2023-09-14T09:38:11.587Z,19.52
2023-09-14T09:41:24.407Z,18.20
2023-09-14T09:50:02.661Z,18.95
2023-09-14T09:52:50.273Z,22.17
2023-09-14T09:55:32.780Z,18.95
2023-09-14T09:58:26.657Z,17.58
2023-09-14T10:03:57.916Z,19.33
2023-09-14T10:06:27.914Z,17.52
2023-09-14T10:08:58.946Z,19.77
2023-09-14T10:11:31.401Z,18.48
2023-09-14T10:14:00.416Z,18.75
2023-09-14T10:16:44.666Z,14.32
2023-09-14T10:19:13.990Z,15.43
2023-09-14T10:21:41.922Z,16.02
2023-09-14T10:24:08.943Z,14.00
2023-09-14T10:26:38.225Z,14.18
2023-09-14T10:29:08.768Z,13.27
2023-09-14T10:31:36.945Z,13.55
2023-09-14T10:37:06.047Z,12.35
2023-09-14T10:39:41.230Z,14.18
2023-09-14T10:42:19.158Z,18.08
2023-09-14T10:44:55.627Z,14.23
2023-09-14T10:47:38.580Z,16.05
2023-09-14T10:50:10.935Z,13.68
2023-09-14T10:52:45.934Z,20.80
2023-09-14T10:55:24.079Z,12.73
2023-09-14T10:58:17.616Z,15.02
2023-09-14T11:00:56.628Z,12.18
2023-09-14T11:03:26.957Z,12.43
2023-09-14T11:05:57.629Z,10.68
2023-09-14T11:08:58.377Z,8.63
2023-09-14T11:11:39.762Z,7.43
2023-09-14T11:14:31.561Z,9.45
2023-09-14T11:17:45.713Z,12.10
2023-09-14T11:20:43.316Z,11.30
2023-09-14T11:23:17.585Z,12.05
2023-09-14T11:25:58.750Z,9.88
2023-09-14T11:28:45.688Z,10.80
2023-09-14T11:31:19.867Z,13.88
2023-09-14T11:33:50.021Z,11.60
2023-09-14T11:36:21.848Z,13.43
2023-09-14T11:38:53.046Z,10.57
2023-09-14T11:41:54.445Z,12.32
2023-09-14T11:44:44.327Z,11.32
2023-09-14T11:47:15.419Z,12.63
2023-09-14T11:49:48.718Z,12.77
2023-09-14T11:52:21.672Z,12.50
2023-09-14T11:54:52.856Z,17.27
2023-09-14T11:57:31.623Z,17.40
2023-09-14T11:59:58.358Z,16.63
2023-09-14T12:02:29.276Z,16.50
2023-09-14T12:05:03.381Z,14.45
2023-09-14T12:07:40.732Z,17.98
2023-09-14T12:10:32.809Z,16.42
2023-09-14T12:13:10.950Z,19.27
2023-09-14T12:15:39.658Z,17.85
2023-09-14T12:18:09.376Z,17.50
2023-09-14T12:20:37.250Z,16.75
2023-09-14T12:23:05.244Z,17.38
2023-09-14T12:25:44.940Z,15.73
2023-09-14T12:28:12.887Z,19.13
2023-09-14T12:30:42.190Z,15.98
2023-09-14T12:33:11.116Z,14.85
2023-09-14T12:35:43.553Z,15.70
2023-09-14T12:38:13.423Z,17.38
2023-09-14T12:40:48.756Z,16.50
2023-09-14T12:43:30.229Z,15.70
2023-09-14T12:46:00.630Z,16.35
2023-09-14T12:48:30.971Z,20.23
2023-09-14T12:51:00.548Z,15.82
2023-09-14T12:53:28.689Z,18.08
2023-09-14T12:56:07.335Z,14.60
2023-09-14T12:58:34.433Z,14.38
2023-09-14T13:01:06.389Z,16.52
2023-09-14T13:03:34.787Z,14.68
2023-09-14T13:06:06.770Z,15.55
2023-09-14T13:08:53.950Z,16.00
2023-09-14T13:11:33.372Z,15.20
2023-09-14T13:14:00.658Z,13.73
2023-09-14T13:16:29.299Z,14.82
2023-09-14T13:19:01.693Z,13.20
2023-09-14T13:21:32.327Z,14.30
2023-09-14T13:24:01.890Z,13.43
2023-09-14T13:26:28.412Z,15.50
2023-09-14T13:28:54.966Z,13.43
2023-09-14T13:31:25.486Z,13.98
2023-09-14T13:33:57.164Z,13.18
2023-09-14T13:36:27.677Z,13.60
2023-09-14T13:38:54.427Z,12.98
2023-09-14T13:41:23.848Z,12.05
2023-09-14T13:43:50.437Z,13.82
2023-09-14T13:46:17.464Z,13.75
2023-09-14T13:48:44.200Z,12.38
2023-09-14T13:51:20.184Z,12.13
2023-09-14T13:53:49.023Z,11.82
2023-09-14T13:56:15.925Z,11.50
2023-09-14T13:58:42.728Z,12.68
2023-09-14T14:01:11.503Z,13.90
2023-09-14T14:03:38.941Z,11.15
2023-09-14T14:06:08.915Z,14.63
2023-09-14T14:08:36.879Z,11.55
2023-09-14T14:11:03.694Z,12.70
2023-09-14T14:13:30.336Z,11.30
2023-09-14T14:15:56.991Z,9.90
2023-09-14T14:18:23.850Z,11.27
2023-09-14T14:20:50.572Z,11.80
2023-09-14T14:23:17.101Z,11.88
2023-09-14T14:25:47.596Z,9.43
2023-09-14T14:28:15.075Z,10.93
2023-09-14T14:30:42.123Z,11.85
2023-09-14T14:33:08.878Z,11.23
2023-09-14T14:35:35.924Z,7.35
2023-09-14T14:38:02.535Z,10.50
2023-09-14T14:43:00.315Z,11.52
2023-09-14T14:45:27.459Z,11.32
2023-09-14T14:47:54.172Z,11.27
2023-09-14T14:50:22.678Z,10.77
2023-09-14T14:52:49.738Z,9.27
2023-09-14T14:55:17.458Z,11.57
2023-09-14T14:57:44.189Z,9.80
2023-09-14T15:00:11.716Z,9.45
2023-09-14T15:02:39.546Z,9.13
2023-09-14T15:05:10.004Z,10.60
2023-09-14T15:07:36.636Z,9.20
2023-09-14T15:10:04.652Z,10.07
2023-09-14T15:12:32.027Z,9.65
2023-09-14T15:14:59.041Z,9.77
2023-09-14T15:17:25.603Z,8.35
2023-09-14T15:19:53.632Z,8.65
2023-09-14T15:22:20.123Z,8.70
2023-09-14T15:24:46.796Z,10.98
2023-09-14T15:27:14.525Z,8.25
2023-09-14T15:29:41.058Z,8.57
2023-09-14T15:32:07.662Z,7.57
2023-09-14T15:34:34.331Z,8.43
2023-09-14T15:37:00.991Z,7.63
2023-09-14T15:39:38.916Z,7.25
2023-09-14T15:42:06.141Z,8.70
2023-09-14T15:44:37.594Z,9.40
2023-09-14T15:47:04.326Z,9.85
2023-09-14T15:49:38.353Z,7.45
2023-09-14T15:52:05.926Z,8.27
2023-09-14T15:54:32.585Z,7.95
2023-09-14T15:56:59.143Z,7.93
2023-09-14T15:59:25.932Z,7.15
2023-09-14T16:01:53.019Z,8.02
2023-09-14T16:04:20.082Z,8.32
2023-09-14T16:06:50.458Z,9.27
2023-09-14T16:09:17.740Z,9.48
2023-09-14T16:11:45.365Z,10.70
2023-09-14T16:14:12.542Z,10.57
2023-09-14T16:16:45.937Z,12.52
2023-09-14T16:19:14.198Z,10.57
2023-09-14T16:21:42.150Z,10.15
2023-09-14T16:24:08.985Z,9.25
2023-09-14T16:26:35.508Z,10.65
2023-09-14T16:29:01.997Z,9.85
2023-09-14T16:31:28.696Z,10.88
2023-09-14T16:33:56.271Z,8.55
2023-09-14T16:36:23.160Z,8.95
2023-09-14T16:38:49.853Z,11.25
2023-09-14T16:41:16.554Z,9.65
2023-09-14T16:43:42.989Z,9.52
2023-09-14T16:46:09.913Z,9.80
2023-09-14T16:48:38.046Z,7.93
2023-09-14T16:51:04.708Z,9.18
2023-09-14T16:53:31.377Z,9.27
2023-09-14T16:55:58.084Z,9.05
2023-09-14T16:58:24.576Z,8.43
2023-09-14T17:00:51.121Z,8.07
2023-09-14T17:03:18.036Z,8.52
2023-09-14T17:05:44.549Z,9.48
2023-09-14T17:08:13.029Z,8.23
2023-09-14T17:10:40.087Z,8.88
2023-09-14T17:13:06.655Z,8.18
2023-09-14T17:15:33.347Z,8.45
2023-09-14T17:18:00.584Z,9.32
2023-09-14T17:20:28.074Z,8.13
2023-09-14T17:22:54.629Z,8.15
2023-09-14T17:25:21.176Z,9.00
2023-09-14T17:27:47.665Z,9.52
2023-09-14T17:30:14.381Z,9.05
2023-09-14T17:32:41.280Z,9.02
2023-09-14T17:35:09.062Z,9.05
2023-09-14T17:37:35.517Z,9.80
2023-09-14T17:40:02.401Z,9.57
2023-09-14T17:42:29.284Z,9.88
2023-09-14T17:44:56.637Z,7.78
2023-09-14T17:47:23.166Z,8.90
2023-09-14T17:49:49.707Z,11.32
2023-09-14T17:52:16.842Z,8.77
2023-09-14T17:54:43.873Z,9.05
2023-09-14T17:57:14.764Z,9.10
2023-09-14T17:59:43.962Z,8.35
2023-09-14T18:02:13.884Z,7.85
2023-09-14T18:04:42.718Z,10.10
2023-09-14T18:07:12.434Z,8.80
2023-09-14T18:09:39.500Z,8.15
2023-09-14T18:12:06.201Z,8.57
2023-09-14T18:14:32.928Z,10.00
2023-09-14T18:17:00.734Z,9.63
2023-09-14T18:19:27.967Z,8.27
2023-09-14T18:21:56.239Z,9.90
2023-09-14T18:24:22.926Z,13.82
2023-09-14T18:26:51.874Z,9.63
2023-09-14T18:29:18.422Z,8.48
2023-09-14T18:31:45.236Z,9.45
2023-09-14T18:34:19.809Z,9.57
2023-09-14T18:36:46.427Z,8.98
2023-09-14T18:39:16.085Z,9.25
2023-09-14T18:41:49.034Z,7.80
2023-09-14T18:44:18.487Z,8.85
2023-09-14T18:46:47.396Z,9.13
2023-09-14T18:49:14.137Z,9.43
2023-09-14T18:51:41.015Z,8.25
2023-09-14T18:54:08.198Z,10.02
2023-09-14T18:56:34.926Z,8.55
2023-09-14T19:01:31.176Z,8.25
2023-09-14T19:03:58.806Z,9.02
2023-09-14T19:06:25.722Z,11.70
2023-09-14T19:08:53.205Z,8.23
2023-09-14T19:11:20.006Z,9.68
2023-09-14T19:13:48.794Z,8.98
2023-09-14T19:16:15.655Z,10.00
2023-09-14T19:18:43.208Z,13.77
2023-09-14T19:21:10.394Z,9.80
2023-09-14T19:23:37.115Z,8.30
2023-09-14T19:26:04.408Z,9.95
2023-09-14T19:28:31.012Z,9.98
2023-09-14T19:30:57.980Z,8.70
2023-09-14T19:33:25.535Z,8.90
2023-09-14T19:35:54.906Z,9.23
2023-09-14T19:38:24.592Z,9.35
2023-09-14T19:40:51.938Z,9.00
2023-09-14T19:43:18.706Z,9.35
2023-09-14T19:45:45.794Z,11.10
2023-09-14T19:48:12.464Z,9.38
2023-09-14T19:50:39.175Z,11.18
2023-09-14T19:53:05.820Z,9.23
2023-09-14T19:55:32.501Z,8.32
2023-09-14T19:58:00.338Z,9.70
2023-09-14T20:00:27.713Z,9.10
2023-09-14T20:02:54.507Z,9.70
2023-09-14T20:05:24.792Z,8.95
2023-09-14T20:07:52.309Z,8.15
2023-09-14T20:10:19.246Z,7.47
2023-09-14T20:12:48.803Z,9.95
2023-09-14T20:15:17.982Z,8.00
2023-09-14T20:17:44.792Z,10.75
2023-09-14T20:20:11.508Z,9.55
2023-09-14T20:22:38.088Z,9.98
2023-09-14T20:25:08.263Z,8.80
2023-09-14T20:27:35.632Z,10.15
2023-09-14T20:30:02.775Z,8.63
2023-09-14T20:32:32.803Z,9.68
2023-09-14T20:34:59.572Z,10.18
2023-09-14T20:37:27.505Z,10.05
2023-09-14T20:39:55.300Z,11.52
2023-09-14T20:42:23.891Z,9.70
2023-09-14T20:44:50.564Z,11.55
2023-09-14T20:47:20.534Z,9.60
2023-09-14T20:49:49.866Z,9.05
2023-09-14T20:52:16.918Z,10.63
2023-09-14T20:54:43.689Z,10.32
2023-09-14T20:57:10.431Z,10.50
2023-09-14T20:59:37.088Z,11.50
2023-09-14T21:02:04.734Z,10.57
2023-09-14T21:04:31.977Z,9.38
2023-09-14T21:06:58.728Z,9.73
2023-09-14T21:09:25.568Z,9.63
2023-09-14T21:11:52.294Z,9.73
2023-09-14T21:14:29.983Z,9.13
2023-09-14T21:16:56.742Z,9.23
2023-09-14T21:19:23.378Z,9.63
2023-09-14T21:22:02.794Z,8.88
2023-09-14T21:24:30.052Z,11.98
2023-09-14T21:26:56.591Z,9.35
2023-09-14T21:29:23.213Z,8.60
2023-09-14T21:31:49.847Z,10.43
2023-09-14T21:34:16.557Z,11.07
2023-09-14T21:36:43.181Z,9.93
2023-09-14T21:39:09.842Z,11.68
2023-09-14T21:41:36.379Z,9.82
2023-09-14T21:44:02.977Z,9.63
2023-09-14T21:46:30.581Z,10.20
2023-09-14T21:48:57.361Z,9.23
2023-09-14T21:51:24.165Z,9.23
2023-09-14T21:53:51.058Z,10.43
2023-09-14T21:56:17.579Z,11.13
2023-09-14T21:58:44.202Z,11.93
2023-09-14T22:01:10.952Z,10.95
2023-09-14T22:03:50.546Z,11.95
2023-09-14T22:06:25.004Z,11.25
2023-09-14T22:08:53.382Z,11.13
2023-09-14T22:11:20.334Z,13.05
2023-09-14T22:13:47.023Z,11.60
2023-09-14T22:16:13.688Z,11.73
2023-09-14T22:18:42.078Z,12.07
2023-09-14T22:21:13.692Z,9.95
2023-09-14T22:23:40.357Z,12.05
2023-09-14T22:26:06.964Z,12.13
2023-09-14T22:28:34.536Z,12.30
2023-09-14T22:31:02.189Z,14.05
2023-09-14T22:33:30.721Z,12.20
2023-09-14T22:35:57.958Z,15.52
2023-09-14T22:38:24.631Z,11.55
2023-09-14T22:40:51.420Z,10.25
2023-09-14T22:43:19.479Z,11.05
2023-09-14T22:45:46.121Z,11.55
2023-09-14T22:48:13.314Z,12.25
2023-09-14T22:50:43.261Z,12.60
2023-09-14T22:53:10.033Z,14.13
2023-09-14T22:55:36.598Z,11.93
2023-09-14T22:58:03.309Z,10.60
2023-09-14T23:00:29.975Z,12.07
2023-09-14T23:02:56.658Z,11.95
2023-09-14T23:05:23.383Z,12.60
2023-09-14T23:07:50.036Z,11.90
2023-09-14T23:10:20.057Z,14.05
2023-09-14T23:12:47.523Z,11.50
2023-09-14T23:15:17.466Z,12.30
2023-09-14T23:17:44.550Z,13.98
2023-09-14T23:20:27.437Z,12.45
2023-09-14T23:22:56.521Z,12.13
2023-09-14T23:25:24.315Z,14.18
2023-09-14T23:27:54.305Z,15.90
2023-09-14T23:30:22.362Z,12.70
2023-09-14T23:32:52.677Z,13.55
2023-09-14T23:35:20.471Z,13.77
2023-09-14T23:37:47.409Z,13.48
2023-09-14T23:40:28.790Z,13.00
2023-09-14T23:42:55.485Z,14.02
2023-09-14T23:45:25.738Z,14.50
2023-09-14T23:47:52.772Z,13.68
2023-09-14T23:50:19.438Z,17.02
2023-09-14T23:52:46.151Z,15.43
2023-09-14T23:55:14.690Z,17.17
2023-09-14T23:57:41.638Z,14.57
